createdAt,value
2018-03-25T00:00:42.211Z,56.2
2018-03-25T00:01:43.579Z,56.2
2018-03-25T00:02:45.056Z,56.1
2018-03-25T00:03:51.642Z,56.4
2018-03-25T00:04:55.910Z,56.5
2018-03-25T00:05:59.871Z,57.1
2018-03-25T00:07:04.946Z,57.2
2018-03-25T00:08:06.546Z,57.3
2018-03-25T00:09:08.642Z,57.8
2018-03-25T00:10:10.079Z,58.2
2018-03-25T00:11:12.207Z,58.0
2018-03-25T00:12:17.754Z,58.5
2018-03-25T00:13:22.093Z,58.5
2018-03-25T00:14:24.040Z,59.3
2018-03-25T00:15:26.155Z,59.5
2018-03-25T00:16:27.556Z,59.6
2018-03-25T00:17:29.643Z,59.3
2018-03-25T00:18:33.398Z,59.4
2018-03-25T00:19:35.567Z,60.0
2018-03-25T00:20:37.104Z,59.8
2018-03-25T00:21:39.517Z,60.0
2018-03-25T00:22:40.913Z,60.6
2018-03-25T00:23:43.244Z,60.3
2018-03-25T00:24:44.643Z,61.1
2018-03-25T00:25:46.057Z,60.8
2018-03-25T00:26:47.446Z,61.1
2018-03-25T00:27:48.847Z,61.1
2018-03-25T00:28:50.277Z,61.2
2018-03-25T00:29:51.734Z,61.1
2018-03-25T00:30:53.197Z,61.0
2018-03-25T00:31:54.607Z,61.4
2018-03-25T00:33:23.682Z,61.4
2018-03-25T00:34:25.141Z,61.4
2018-03-25T00:35:29.764Z,62.0
2018-03-25T00:36:34.011Z,62.2
2018-03-25T00:37:36.690Z,62.5
2018-03-25T00:38:38.983Z,62.2
2018-03-25T00:39:40.403Z,62.3
2018-03-25T00:40:43.247Z,62.7
2018-03-25T00:41:44.673Z,62.3
2018-03-25T00:42:46.919Z,62.7
2018-03-25T00:43:48.361Z,62.4
2018-03-25T00:44:51.866Z,62.7
2018-03-25T00:45:53.325Z,63.1
2018-03-25T00:46:56.923Z,63.1
2018-03-25T00:47:59.220Z,62.8
2018-03-25T00:49:00.604Z,63.3
2018-03-25T00:50:01.989Z,63.4
2018-03-25T00:51:03.490Z,63.0
2018-03-25T00:52:04.905Z,63.2
2018-03-25T00:53:07.114Z,63.7
2018-03-25T00:54:08.480Z,64.0
2018-03-25T00:55:09.895Z,63.7
2018-03-25T00:56:11.322Z,63.9
2018-03-25T00:57:13.338Z,64.3
2018-03-25T00:58:15.299Z,64.3
2018-03-25T00:59:19.271Z,64.2
2018-03-25T01:00:21.220Z,64.3
2018-03-25T01:01:23.770Z,64.8
2018-03-25T01:02:27.573Z,64.8
2018-03-25T01:03:30.277Z,64.8
2018-03-25T01:04:31.742Z,65.0
2018-03-25T01:05:34.142Z,65.3
2018-03-25T01:06:38.165Z,64.9
2018-03-25T01:07:39.697Z,65.4
2018-03-25T01:08:41.628Z,65.3
2018-03-25T01:09:43.812Z,65.4
2018-03-25T01:10:46.262Z,65.3
2018-03-25T01:11:48.994Z,64.8
2018-03-25T01:12:51.351Z,64.9
2018-03-25T01:13:52.742Z,64.9
2018-03-25T01:14:58.253Z,64.1
2018-03-25T01:15:59.738Z,64.2
2018-03-25T01:17:07.702Z,64.0
2018-03-25T01:18:09.121Z,63.7
2018-03-25T01:19:14.567Z,63.7
2018-03-25T01:20:16.014Z,63.4
2018-03-25T01:21:21.154Z,63.2
2018-03-25T01:22:23.296Z,63.5
2018-03-25T01:23:27.163Z,63.6
2018-03-25T01:24:29.171Z,63.1
2018-03-25T01:25:30.555Z,63.2
2018-03-25T01:26:32.001Z,62.8
2018-03-25T01:27:34.066Z,62.0
2018-03-25T01:28:37.277Z,62.8
2018-03-25T01:29:39.379Z,63.3
2018-03-25T01:30:40.752Z,63.4
2018-03-25T01:31:43.087Z,63.2
2018-03-25T01:32:46.648Z,63.0
2018-03-25T01:33:48.993Z,63.0
2018-03-25T01:34:51.363Z,63.2
2018-03-25T01:35:52.807Z,63.5
2018-03-25T01:36:54.243Z,63.4
2018-03-25T01:37:57.572Z,63.4
2018-03-25T01:38:59.714Z,63.4
2018-03-25T01:40:01.157Z,63.4
2018-03-25T01:41:05.001Z,63.4
2018-03-25T01:42:07.226Z,63.4
2018-03-25T01:43:10.130Z,63.8
2018-03-25T01:44:13.140Z,63.8
2018-03-25T01:45:19.619Z,64.2
2018-03-25T01:46:21.037Z,64.2
2018-03-25T01:47:23.355Z,64.6
2018-03-25T01:48:24.794Z,64.8
2018-03-25T01:49:27.835Z,64.9
2018-03-25T01:50:31.397Z,65.1
2018-03-25T01:51:37.648Z,65.0
2018-03-25T01:52:38.954Z,65.2
2018-03-25T01:53:44.888Z,65.7
2018-03-25T01:54:46.949Z,65.7
2018-03-25T01:55:48.348Z,66.0
2018-03-25T01:56:49.734Z,66.2
2018-03-25T01:57:54.471Z,66.3
2018-03-25T01:58:55.899Z,66.6
2018-03-25T01:59:57.334Z,66.5
2018-03-25T02:01:03.642Z,66.4
2018-03-25T02:02:05.040Z,67.1
2018-03-25T02:03:06.562Z,67.2
2018-03-25T02:04:11.297Z,66.9
2018-03-25T02:05:16.189Z,66.8
2018-03-25T02:06:18.437Z,67.4
2018-03-25T02:07:19.841Z,67.5
2018-03-25T02:08:21.307Z,67.6
2018-03-25T02:09:24.256Z,67.0
2018-03-25T02:10:27.314Z,67.4
2018-03-25T02:11:29.496Z,67.6
2018-03-25T02:12:30.918Z,67.5
2018-03-25T02:13:34.027Z,67.4
2018-03-25T02:14:35.481Z,68.0
2018-03-25T02:15:37.725Z,67.6
2018-03-25T02:16:43.049Z,68.1
2018-03-25T02:17:45.449Z,68.1
2018-03-25T02:18:47.450Z,67.9
2018-03-25T02:19:48.884Z,67.7
2018-03-25T02:20:50.344Z,68.1
2018-03-25T02:21:54.582Z,68.8
2018-03-25T02:22:57.566Z,68.7
2018-03-25T02:23:59.582Z,68.5
2018-03-25T02:25:01.582Z,68.9
2018-03-25T02:26:02.546Z,69.1
2018-03-25T02:27:24.298Z,68.8
2018-03-25T02:28:26.581Z,68.8
2018-03-25T02:29:27.125Z,69.1
2018-03-25T02:30:28.575Z,69.2
2018-03-25T02:31:50.647Z,69.2
2018-03-25T02:32:55.649Z,69.5
2018-03-25T02:33:57.079Z,69.0
2018-03-25T02:34:59.250Z,69.3
2018-03-25T02:36:00.695Z,69.5
2018-03-25T02:37:03.151Z,69.4
2018-03-25T02:38:04.544Z,69.4
2018-03-25T02:39:05.942Z,69.0
2018-03-25T02:40:07.348Z,68.9
2018-03-25T02:41:08.987Z,69.5
2018-03-25T02:42:10.376Z,69.5
2018-03-25T02:43:11.817Z,69.5
2018-03-25T02:44:13.331Z,69.9
2018-03-25T02:45:14.958Z,70.0
2018-03-25T02:46:16.395Z,69.9
2018-03-25T02:47:17.797Z,69.8
2018-03-25T02:48:19.344Z,70.1
2018-03-25T02:49:22.604Z,70.1
2018-03-25T02:50:24.198Z,70.4
2018-03-25T02:51:26.268Z,70.3
2018-03-25T02:52:29.086Z,70.3
2018-03-25T02:53:30.064Z,70.3
2018-03-25T02:54:31.511Z,70.6
2018-03-25T02:55:34.350Z,70.7
2018-03-25T02:56:35.787Z,70.5
2018-03-25T02:57:37.192Z,70.7
2018-03-25T02:58:39.989Z,71.1
2018-03-25T02:59:41.421Z,70.9
2018-03-25T03:00:42.837Z,71.1
2018-03-25T03:01:44.201Z,71.2
2018-03-25T03:02:45.749Z,71.0
2018-03-25T03:03:47.184Z,70.9
2018-03-25T03:04:49.477Z,71.2
2018-03-25T03:05:51.779Z,71.0
2018-03-25T03:06:54.109Z,71.8
2018-03-25T03:07:57.082Z,71.5
2018-03-25T03:08:57.869Z,71.7
2018-03-25T03:09:59.288Z,71.6
2018-03-25T03:11:00.720Z,71.5
2018-03-25T03:12:03.095Z,72.0
2018-03-25T03:13:05.474Z,71.9
2018-03-25T03:14:06.927Z,71.9
2018-03-25T03:15:09.852Z,72.1
2018-03-25T03:16:12.402Z,72.3
2018-03-25T03:17:14.806Z,72.1
2018-03-25T03:18:17.166Z,72.3
2018-03-25T03:19:18.713Z,72.0
2018-03-25T03:20:24.971Z,72.4
2018-03-25T03:21:26.533Z,72.0
2018-03-25T03:22:27.909Z,72.6
2018-03-25T03:23:29.350Z,72.4
2018-03-25T03:24:30.808Z,72.3
2018-03-25T03:25:54.620Z,72.4
2018-03-25T03:26:56.038Z,72.2
2018-03-25T03:28:05.880Z,72.9
2018-03-25T03:29:07.326Z,72.8
2018-03-25T03:30:24.412Z,72.6
2018-03-25T03:31:25.810Z,72.9
2018-03-25T03:32:27.228Z,73.1
2018-03-25T03:33:28.635Z,73.4
2018-03-25T03:34:30.080Z,73.2
2018-03-25T03:35:32.137Z,73.0
2018-03-25T03:36:35.277Z,72.8
2018-03-25T03:37:54.548Z,73.0
2018-03-25T03:39:24.613Z,72.9
2018-03-25T03:40:26.058Z,73.6
2018-03-25T03:41:27.454Z,73.5
2018-03-25T03:42:54.602Z,73.7
2018-03-25T03:43:56.088Z,73.4
2018-03-25T03:45:05.172Z,73.6
2018-03-25T03:46:08.960Z,73.8
2018-03-25T03:47:10.436Z,73.6
2018-03-25T03:48:11.821Z,73.5
2018-03-25T03:49:14.665Z,74.1
2018-03-25T03:50:17.685Z,74.2
2018-03-25T03:51:19.161Z,73.8
2018-03-25T03:52:24.364Z,73.8
2018-03-25T03:53:27.263Z,74.4
2018-03-25T03:54:28.683Z,74.2
2018-03-25T03:55:31.869Z,74.0
2018-03-25T03:56:35.898Z,74.2
2018-03-25T03:57:37.437Z,74.4
2018-03-25T03:58:38.933Z,74.3
2018-03-25T03:59:40.361Z,74.3
2018-03-25T04:00:44.055Z,74.5
2018-03-25T04:01:47.651Z,74.5
2018-03-25T04:02:49.074Z,75.1
2018-03-25T04:03:50.524Z,75.1
2018-03-25T04:04:52.721Z,74.9
2018-03-25T04:05:55.486Z,74.8
2018-03-25T04:06:57.638Z,74.8
2018-03-25T04:07:59.046Z,74.8
2018-03-25T04:09:01.468Z,74.8
2018-03-25T04:10:02.884Z,74.8
2018-03-25T04:11:05.935Z,74.6
2018-03-25T04:12:10.081Z,74.9
2018-03-25T04:13:11.522Z,74.9
2018-03-25T04:14:12.943Z,74.8
2018-03-25T04:15:16.714Z,75.0
2018-03-25T04:16:18.116Z,75.0
2018-03-25T04:17:20.169Z,75.0
2018-03-25T04:18:21.580Z,75.0
2018-03-25T04:19:25.000Z,74.9
2018-03-25T04:20:39.291Z,75.2
2018-03-25T04:21:42.094Z,75.8
2018-03-25T04:22:43.482Z,75.8
2018-03-25T04:23:46.298Z,75.3
2018-03-25T04:24:54.598Z,75.5
2018-03-25T04:25:55.187Z,75.7
2018-03-25T04:27:24.342Z,76.0
2018-03-25T04:28:26.523Z,76.2
2018-03-25T04:29:27.956Z,75.8
2018-03-25T04:30:30.294Z,75.8
2018-03-25T04:31:41.434Z,75.8
2018-03-25T04:32:54.708Z,75.7
2018-03-25T04:33:56.758Z,75.8
2018-03-25T04:35:01.645Z,75.6
2018-03-25T04:36:08.375Z,75.8
2018-03-25T04:37:15.091Z,76.1
2018-03-25T04:38:18.699Z,76.2
2018-03-25T04:39:20.865Z,76.2
2018-03-25T04:40:23.230Z,76.5
2018-03-25T04:41:26.035Z,76.5
2018-03-25T04:42:31.506Z,76.6
2018-03-25T04:43:34.595Z,76.3
2018-03-25T04:44:37.691Z,76.8
2018-03-25T04:45:39.608Z,76.8
2018-03-25T04:46:41.026Z,76.7
2018-03-25T04:47:42.371Z,76.5
2018-03-25T04:48:48.400Z,76.7
2018-03-25T04:49:54.154Z,77.0
2018-03-25T04:50:55.563Z,77.0
2018-03-25T04:51:58.441Z,77.1
2018-03-25T04:52:59.889Z,77.1
2018-03-25T04:54:01.355Z,77.2
2018-03-25T04:55:04.252Z,78.0
2018-03-25T04:56:07.468Z,77.0
2018-03-25T04:57:10.943Z,77.3
2018-03-25T04:58:14.834Z,76.8
2018-03-25T04:59:16.243Z,77.5
2018-03-25T05:00:17.622Z,77.2
2018-03-25T05:01:25.162Z,77.2
2018-03-25T05:02:27.300Z,77.3
2018-03-25T05:03:28.733Z,76.9
2018-03-25T05:04:30.102Z,76.9
2018-03-25T05:05:31.481Z,77.4
2018-03-25T05:06:32.900Z,77.7
2018-03-25T05:07:36.615Z,77.5
2018-03-25T05:08:39.055Z,77.4
2018-03-25T05:09:40.533Z,77.9
2018-03-25T05:10:41.959Z,77.6
2018-03-25T05:11:46.222Z,77.7
2018-03-25T05:12:47.695Z,77.8
2018-03-25T05:13:49.657Z,77.7
2018-03-25T05:14:51.663Z,77.9
2018-03-25T05:15:53.036Z,77.5
2018-03-25T05:16:56.457Z,77.7
2018-03-25T05:17:58.000Z,77.5
2018-03-25T05:19:00.849Z,78.0
2018-03-25T05:20:03.920Z,77.7
2018-03-25T05:21:08.281Z,78.4
2018-03-25T05:22:09.747Z,77.3
2018-03-25T05:23:13.423Z,77.9
2018-03-25T05:24:16.313Z,78.6
2018-03-25T05:25:17.794Z,78.5
2018-03-25T05:26:19.192Z,78.5
2018-03-25T05:27:23.332Z,78.2
2018-03-25T05:28:27.312Z,78.1
2018-03-25T05:29:29.345Z,78.0
2018-03-25T05:30:32.530Z,77.9
2018-03-25T05:31:36.086Z,78.0
2018-03-25T05:32:38.490Z,78.2
2018-03-25T05:33:39.899Z,78.2
2018-03-25T05:34:42.058Z,78.2
2018-03-25T05:35:43.480Z,78.2
2018-03-25T05:36:44.911Z,78.3
2018-03-25T05:37:46.324Z,78.4
2018-03-25T05:38:48.881Z,78.6
2018-03-25T05:39:50.391Z,78.3
2018-03-25T05:40:51.791Z,78.7
2018-03-25T05:41:54.016Z,78.9
2018-03-25T05:42:56.130Z,78.8
2018-03-25T05:43:57.504Z,78.9
2018-03-25T05:44:58.859Z,78.9
2018-03-25T05:46:00.210Z,79.0
2018-03-25T05:47:02.176Z,78.7
2018-03-25T05:48:04.224Z,78.9
2018-03-25T05:49:08.005Z,78.8
2018-03-25T05:50:09.539Z,78.9
2018-03-25T05:51:11.395Z,78.8
2018-03-25T05:52:13.691Z,78.9
2018-03-25T05:53:15.638Z,79.1
2018-03-25T05:54:17.123Z,79.2
2018-03-25T05:55:18.584Z,79.0
2018-03-25T05:56:21.755Z,79.1
2018-03-25T05:57:23.866Z,79.4
2018-03-25T05:58:25.944Z,79.5
2018-03-25T05:59:28.167Z,79.6
2018-03-25T06:00:30.942Z,79.5
2018-03-25T06:01:32.372Z,79.1
2018-03-25T06:02:33.807Z,79.5
2018-03-25T06:03:35.221Z,79.5
2018-03-25T06:04:36.599Z,79.4
2018-03-25T06:05:39.931Z,79.3
2018-03-25T06:06:41.387Z,79.7
2018-03-25T06:07:42.863Z,79.3
2018-03-25T06:08:44.801Z,79.7
2018-03-25T06:09:48.452Z,79.5
2018-03-25T06:10:50.410Z,79.3
2018-03-25T06:11:52.031Z,79.5
2018-03-25T06:12:54.419Z,79.3
2018-03-25T06:13:56.831Z,79.4
2018-03-25T06:14:59.226Z,79.7
2018-03-25T06:16:01.496Z,79.5
2018-03-25T06:17:03.636Z,79.3
2018-03-25T06:18:06.470Z,79.3
2018-03-25T06:19:09.076Z,79.3
2018-03-25T06:20:10.470Z,79.8
2018-03-25T06:21:11.900Z,79.4
2018-03-25T06:22:13.403Z,79.7
2018-03-25T06:23:14.811Z,79.4
2018-03-25T06:24:16.220Z,79.7
2018-03-25T06:25:18.430Z,79.4
2018-03-25T06:26:20.572Z,79.7
2018-03-25T06:27:21.966Z,79.5
2018-03-25T06:28:24.063Z,79.4
2018-03-25T06:29:27.411Z,79.5
2018-03-25T06:30:29.589Z,79.4
2018-03-25T06:31:31.532Z,79.4
2018-03-25T06:32:32.971Z,79.7
2018-03-25T06:33:35.250Z,79.9
2018-03-25T06:34:37.537Z,79.7
2018-03-25T06:35:41.195Z,79.7
2018-03-25T06:36:43.202Z,79.7
2018-03-25T06:37:46.699Z,79.4
2018-03-25T06:38:48.184Z,79.6
2018-03-25T06:39:50.191Z,79.3
2018-03-25T06:40:53.734Z,79.6
2018-03-25T06:41:56.613Z,79.6
2018-03-25T06:42:57.398Z,79.6
2018-03-25T06:43:59.358Z,79.5
2018-03-25T06:45:01.603Z,79.5
2018-03-25T06:46:03.024Z,79.4
2018-03-25T06:47:04.409Z,79.5
2018-03-25T06:48:07.251Z,79.5
2018-03-25T06:49:09.933Z,79.4
2018-03-25T06:50:11.321Z,79.4
2018-03-25T06:51:13.626Z,79.5
2018-03-25T06:52:15.888Z,79.7
2018-03-25T06:53:17.823Z,79.3
2018-03-25T06:54:21.106Z,79.6
2018-03-25T06:55:26.164Z,79.5
2018-03-25T06:56:27.547Z,79.0
2018-03-25T06:57:30.314Z,78.7
2018-03-25T06:58:31.741Z,78.6
2018-03-25T06:59:33.199Z,78.8
2018-03-25T07:00:34.592Z,78.9
2018-03-25T07:01:36.764Z,78.9
2018-03-25T07:02:38.313Z,78.3
2018-03-25T07:03:39.918Z,78.0
2018-03-25T07:04:41.639Z,77.8
2018-03-25T07:05:43.238Z,77.8
2018-03-25T07:06:45.616Z,77.9
2018-03-25T07:07:47.256Z,77.5
2018-03-25T07:08:48.775Z,77.3
2018-03-25T07:09:51.233Z,77.9
2018-03-25T07:10:54.117Z,77.2
2018-03-25T07:11:56.163Z,77.1
2018-03-25T07:12:58.457Z,77.1
2018-03-25T07:14:00.683Z,76.6
2018-03-25T07:15:03.372Z,76.6
2018-03-25T07:16:04.780Z,76.7
2018-03-25T07:17:06.238Z,76.0
2018-03-25T07:18:07.647Z,76.1
2018-03-25T07:19:11.282Z,75.9
2018-03-25T07:20:12.693Z,75.8
2018-03-25T07:21:16.648Z,75.5
2018-03-25T07:22:18.115Z,75.3
2018-03-25T07:23:20.179Z,74.9
2018-03-25T07:24:21.705Z,75.1
2018-03-25T07:25:23.126Z,74.5
2018-03-25T07:26:24.533Z,74.4
2018-03-25T07:27:26.977Z,74.6
2018-03-25T07:28:28.445Z,74.2
2018-03-25T07:29:29.833Z,73.9
2018-03-25T07:30:31.228Z,73.6
2018-03-25T07:31:33.626Z,74.1
2018-03-25T07:32:34.988Z,73.0
2018-03-25T07:33:36.489Z,73.0
2018-03-25T07:34:37.929Z,73.2
2018-03-25T07:35:39.355Z,73.3
2018-03-25T07:36:40.821Z,72.9
2018-03-25T07:37:43.961Z,73.1
2018-03-25T07:38:46.325Z,72.3
2018-03-25T07:39:47.797Z,72.7
2018-03-25T07:40:49.892Z,72.3
2018-03-25T07:41:51.350Z,72.5
2018-03-25T07:42:52.759Z,72.2
2018-03-25T07:43:55.278Z,72.1
2018-03-25T07:44:58.628Z,71.7
2018-03-25T07:45:59.248Z,71.7
2018-03-25T07:47:00.695Z,70.9
2018-03-25T07:48:02.209Z,71.5
2018-03-25T07:49:04.299Z,71.2
2018-03-25T07:50:05.787Z,70.6
2018-03-25T07:51:07.828Z,70.6
2018-03-25T07:52:10.513Z,70.4
2018-03-25T07:53:11.988Z,70.0
2018-03-25T07:54:13.542Z,70.1
2018-03-25T07:55:14.946Z,70.0
2018-03-25T07:56:16.381Z,69.4
2018-03-25T07:57:17.802Z,69.6
2018-03-25T07:58:19.225Z,69.4
2018-03-25T07:59:21.214Z,68.8
2018-03-25T08:00:22.644Z,68.8
2018-03-25T08:01:24.383Z,68.2
2018-03-25T08:02:26.439Z,68.2
2018-03-25T08:03:27.945Z,68.0
2018-03-25T08:04:29.366Z,67.8
2018-03-25T08:05:32.028Z,67.1
2018-03-25T08:06:35.537Z,67.6
2018-03-25T08:07:37.587Z,67.5
2018-03-25T08:08:39.693Z,67.0
2018-03-25T08:09:41.691Z,66.8
2018-03-25T08:10:44.788Z,66.8
2018-03-25T08:11:46.150Z,66.4
2018-03-25T08:12:47.514Z,66.3
2018-03-25T08:13:49.660Z,66.1
2018-03-25T08:14:53.204Z,66.3
2018-03-25T08:15:54.633Z,66.2
2018-03-25T08:16:56.024Z,66.2
2018-03-25T08:17:57.394Z,66.0
2018-03-25T08:19:00.387Z,65.9
2018-03-25T08:20:02.494Z,65.4
2018-03-25T08:21:03.897Z,65.6
2018-03-25T08:22:05.262Z,65.4
2018-03-25T08:23:08.290Z,65.3
2018-03-25T08:24:09.651Z,64.5
2018-03-25T08:25:11.022Z,64.5
2018-03-25T08:26:12.393Z,63.9
2018-03-25T08:27:14.499Z,64.0
2018-03-25T08:28:15.873Z,63.8
2018-03-25T08:29:17.237Z,63.5
2018-03-25T08:30:19.183Z,63.3
2018-03-25T08:31:20.541Z,62.7
2018-03-25T08:32:21.918Z,62.7
2018-03-25T08:33:25.687Z,62.7
2018-03-25T08:34:27.809Z,62.5
2018-03-25T08:35:29.179Z,62.8
2018-03-25T08:36:31.288Z,62.8
2018-03-25T08:37:32.716Z,62.6
2018-03-25T08:38:34.090Z,62.2
2018-03-25T08:39:35.466Z,62.4
2018-03-25T08:40:36.838Z,62.7
2018-03-25T08:41:38.248Z,62.6
2018-03-25T08:42:40.472Z,62.6
2018-03-25T08:43:42.509Z,62.3
2018-03-25T08:44:43.863Z,62.4
2018-03-25T08:45:45.757Z,62.3
2018-03-25T08:46:48.683Z,62.0
2018-03-25T08:47:50.054Z,62.1
2018-03-25T08:48:51.425Z,62.6
2018-03-25T08:49:52.810Z,62.4
2018-03-25T08:50:54.233Z,62.5
2018-03-25T08:51:56.550Z,62.6
2018-03-25T08:52:58.046Z,61.9
2018-03-25T08:53:59.412Z,61.7
2018-03-25T08:55:00.788Z,61.9
2018-03-25T08:56:02.155Z,61.5
2018-03-25T08:57:03.519Z,61.5
2018-03-25T08:58:04.895Z,61.3
2018-03-25T08:59:06.295Z,61.3
2018-03-25T09:00:07.781Z,61.2
2018-03-25T09:01:09.406Z,61.4
2018-03-25T09:02:10.824Z,61.0
2018-03-25T09:03:12.217Z,60.8
2018-03-25T09:04:13.826Z,61.3
2018-03-25T09:05:15.283Z,61.0
2018-03-25T09:06:16.726Z,61.2
2018-03-25T09:07:18.100Z,61.0
2018-03-25T09:08:19.487Z,61.1
2018-03-25T09:09:21.743Z,61.0
2018-03-25T09:10:23.123Z,61.3
2018-03-25T09:11:24.542Z,61.2
2018-03-25T09:12:25.940Z,61.5
2018-03-25T09:13:27.862Z,61.0
2018-03-25T09:14:29.244Z,60.9
2018-03-25T09:15:30.617Z,61.1
2018-03-25T09:16:32.821Z,60.5
2018-03-25T09:17:37.790Z,60.5
2018-03-25T09:18:39.151Z,60.3
2018-03-25T09:19:40.543Z,61.0
2018-03-25T09:20:41.919Z,60.5
2018-03-25T09:21:43.307Z,60.7
2018-03-25T09:22:45.157Z,60.9
2018-03-25T09:23:47.164Z,60.7
2018-03-25T09:24:49.665Z,60.5
2018-03-25T09:25:50.791Z,60.3
2018-03-25T09:26:52.163Z,60.3
2018-03-25T09:27:53.543Z,60.8
2018-03-25T09:28:55.604Z,60.9
2018-03-25T09:29:57.478Z,60.6
2018-03-25T09:30:58.857Z,61.0
2018-03-25T09:32:01.668Z,61.1
2018-03-25T09:33:02.377Z,60.9
2018-03-25T09:34:03.772Z,60.8
2018-03-25T09:35:05.152Z,60.8
2018-03-25T09:36:06.515Z,60.2
2018-03-25T09:37:08.762Z,59.8
2018-03-25T09:38:11.009Z,59.5
2018-03-25T09:39:12.439Z,59.6
2018-03-25T09:40:13.807Z,59.9
2018-03-25T09:41:16.691Z,59.8
2018-03-25T09:42:19.674Z,59.8
2018-03-25T09:43:21.031Z,59.6
2018-03-25T09:44:22.404Z,60.1
2018-03-25T09:45:23.779Z,60.2
2018-03-25T09:46:25.673Z,60.1
2018-03-25T09:47:27.436Z,59.7
2018-03-25T09:48:28.842Z,59.7
2018-03-25T09:49:30.379Z,59.1
2018-03-25T09:50:31.809Z,58.7
2018-03-25T09:51:34.231Z,58.7
2018-03-25T09:52:35.611Z,58.8
2018-03-25T09:53:37.533Z,58.3
2018-03-25T09:54:38.952Z,58.3
2018-03-25T09:55:41.762Z,58.8
2018-03-25T09:56:44.591Z,58.7
2018-03-25T09:57:45.998Z,58.7
2018-03-25T09:58:48.150Z,58.6
2018-03-25T09:59:49.523Z,58.5
2018-03-25T10:00:51.738Z,57.8
2018-03-25T10:01:53.158Z,58.2
2018-03-25T10:02:55.232Z,57.9
2018-03-25T10:03:56.615Z,57.6
2018-03-25T10:04:58.050Z,57.6
2018-03-25T10:05:59.423Z,57.5
2018-03-25T10:07:00.805Z,57.7
2018-03-25T10:08:02.189Z,57.9
2018-03-25T10:09:03.606Z,58.0
2018-03-25T10:10:04.984Z,57.7
2018-03-25T10:11:06.362Z,57.9
2018-03-25T10:12:07.749Z,57.6
2018-03-25T10:13:10.005Z,57.8
2018-03-25T10:14:12.916Z,57.3
2018-03-25T10:15:14.306Z,57.4
2018-03-25T10:16:17.473Z,57.5
2018-03-25T10:17:18.860Z,57.0
2018-03-25T10:18:20.246Z,56.7
2018-03-25T10:19:21.635Z,57.0
2018-03-25T10:20:23.023Z,56.7
2018-03-25T10:21:24.380Z,57.2
2018-03-25T10:22:26.433Z,56.8
2018-03-25T10:23:27.789Z,57.1
2018-03-25T10:24:29.175Z,56.4
2018-03-25T10:25:30.577Z,56.4
2018-03-25T10:26:31.960Z,56.6
2018-03-25T10:27:33.354Z,56.5
2018-03-25T10:28:34.725Z,56.1
2018-03-25T10:29:37.380Z,56.0
2018-03-25T10:30:38.808Z,55.5
2018-03-25T10:31:40.185Z,55.7
2018-03-25T10:32:42.754Z,55.4
2018-03-25T10:33:45.545Z,55.8
2018-03-25T10:34:47.749Z,56.1
2018-03-25T10:35:49.216Z,56.3
2018-03-25T10:36:50.576Z,56.5
2018-03-25T10:37:51.949Z,56.3
2018-03-25T10:38:54.859Z,56.1
2018-03-25T10:39:56.237Z,56.3
2018-03-25T10:40:57.628Z,56.6
2018-03-25T10:41:59.005Z,56.3
2018-03-25T10:43:00.380Z,56.2
2018-03-25T10:44:01.747Z,56.0
2018-03-25T10:45:03.816Z,56.1
2018-03-25T10:46:05.202Z,56.4
2018-03-25T10:47:06.574Z,56.2
2018-03-25T10:48:07.966Z,56.0
2018-03-25T10:49:09.366Z,55.9
2018-03-25T10:50:10.748Z,55.3
2018-03-25T10:51:12.137Z,55.2
2018-03-25T10:52:14.179Z,55.0
2018-03-25T10:53:15.568Z,55.3
2018-03-25T10:54:16.962Z,55.0
2018-03-25T10:55:19.710Z,54.7
2018-03-25T10:56:20.218Z,54.5
2018-03-25T10:57:21.588Z,54.8
2018-03-25T10:58:22.924Z,54.2
2018-03-25T10:59:24.355Z,54.3
2018-03-25T11:00:25.747Z,54.5
2018-03-25T11:01:27.120Z,54.9
2018-03-25T11:02:28.516Z,55.3
2018-03-25T11:03:31.708Z,54.8
2018-03-25T11:04:32.167Z,54.5
2018-03-25T11:05:33.541Z,54.8
2018-03-25T11:06:34.922Z,54.3
2018-03-25T11:07:36.852Z,54.5
2018-03-25T11:08:38.834Z,54.1
2018-03-25T11:09:40.712Z,54.4
2018-03-25T11:10:43.029Z,54.2
2018-03-25T11:11:44.997Z,54.4
2018-03-25T11:12:46.391Z,54.4
2018-03-25T11:13:47.759Z,54.6
2018-03-25T11:14:49.135Z,54.1
2018-03-25T11:15:50.535Z,54.1
2018-03-25T11:16:52.744Z,54.1
2018-03-25T11:17:54.935Z,54.1
2018-03-25T11:18:56.368Z,54.1
2018-03-25T11:19:57.748Z,54.2
2018-03-25T11:20:59.662Z,53.7
2018-03-25T11:22:01.981Z,53.3
2018-03-25T11:23:04.226Z,53.0
2018-03-25T11:24:05.604Z,53.5
2018-03-25T11:25:07.000Z,52.8
2018-03-25T11:26:08.383Z,52.9
2018-03-25T11:27:09.820Z,52.9
2018-03-25T11:28:11.207Z,52.9
2018-03-25T11:29:12.616Z,52.7
2018-03-25T11:30:14.305Z,53.3
2018-03-25T11:31:15.689Z,53.6
2018-03-25T11:32:17.615Z,53.5
2018-03-25T11:33:19.724Z,53.1
2018-03-25T11:34:20.331Z,53.2
2018-03-25T11:35:21.724Z,53.0
2018-03-25T11:36:23.099Z,53.0
2018-03-25T11:37:25.144Z,52.8
2018-03-25T11:38:26.536Z,52.6
2018-03-25T11:39:27.908Z,52.1
2018-03-25T11:40:29.297Z,52.3
2018-03-25T11:41:32.275Z,52.4
2018-03-25T11:42:34.521Z,51.8
2018-03-25T11:43:36.586Z,52.1
2018-03-25T11:44:38.736Z,51.9
2018-03-25T11:45:40.112Z,52.0
2018-03-25T11:46:41.501Z,51.5
2018-03-25T11:47:42.876Z,51.3
2018-03-25T11:48:44.263Z,51.4
2018-03-25T11:49:45.644Z,51.5
2018-03-25T11:50:47.034Z,51.1
2018-03-25T11:51:48.405Z,50.7
2018-03-25T11:52:50.334Z,50.6
2018-03-25T11:53:52.670Z,50.4
2018-03-25T11:54:54.644Z,50.7
2018-03-25T11:55:56.387Z,51.1
2018-03-25T11:56:57.773Z,50.3
2018-03-25T11:58:01.431Z,50.0
2018-03-25T11:59:02.822Z,50.7
2018-03-25T12:00:05.187Z,50.8
2018-03-25T12:01:07.360Z,50.8
2018-03-25T12:02:09.444Z,50.2
2018-03-25T12:03:11.341Z,50.0
2018-03-25T12:04:14.242Z,49.7
2018-03-25T12:05:15.692Z,49.5
2018-03-25T12:06:17.092Z,49.1
2018-03-25T12:07:20.098Z,49.2
2018-03-25T12:08:22.877Z,49.0
2018-03-25T12:09:24.270Z,49.1
2018-03-25T12:10:28.413Z,49.5
2018-03-25T12:11:31.014Z,49.3
2018-03-25T12:12:35.536Z,49.4
2018-03-25T12:13:36.921Z,49.3
2018-03-25T12:14:38.920Z,49.4
2018-03-25T12:15:41.237Z,49.1
2018-03-25T12:16:43.405Z,49.1
2018-03-25T12:17:45.418Z,49.2
2018-03-25T12:18:49.659Z,48.6
2018-03-25T12:19:51.860Z,48.6
2018-03-25T12:20:53.903Z,48.7
2018-03-25T12:21:55.817Z,48.5
2018-03-25T12:22:58.088Z,48.6
2018-03-25T12:24:01.012Z,48.5
2018-03-25T12:25:02.396Z,48.5
2018-03-25T12:26:04.321Z,48.4
2018-03-25T12:27:06.593Z,48.1
2018-03-25T12:28:07.172Z,48.2
2018-03-25T12:29:09.137Z,47.8
2018-03-25T12:30:11.435Z,47.9
2018-03-25T12:31:14.309Z,47.9
2018-03-25T12:32:15.730Z,47.9
2018-03-25T12:33:18.084Z,47.9
2018-03-25T12:34:22.005Z,48.1
2018-03-25T12:35:24.643Z,48.2
2018-03-25T12:36:26.921Z,48.1
2018-03-25T12:37:28.299Z,48.2
2018-03-25T12:38:30.626Z,47.7
2018-03-25T12:39:32.804Z,47.8
2018-03-25T12:40:34.200Z,47.8
2018-03-25T12:41:37.001Z,47.7
2018-03-25T12:42:39.236Z,47.0
2018-03-25T12:43:42.099Z,47.0
2018-03-25T12:44:43.518Z,47.2
2018-03-25T12:45:44.861Z,46.8
2018-03-25T12:46:47.040Z,46.6
2018-03-25T12:47:48.953Z,46.9
2018-03-25T12:48:49.748Z,46.3
2018-03-25T12:49:51.763Z,46.0
2018-03-25T12:50:53.139Z,46.0
2018-03-25T12:51:54.519Z,46.0
2018-03-25T12:52:55.897Z,46.1
2018-03-25T12:53:57.274Z,46.2
2018-03-25T12:54:59.735Z,46.1
2018-03-25T12:56:02.600Z,46.1
2018-03-25T12:57:04.947Z,46.3
2018-03-25T12:58:07.149Z,46.1
2018-03-25T12:59:09.467Z,46.0
2018-03-25T13:00:11.811Z,45.9
2018-03-25T13:01:13.190Z,46.0
2018-03-25T13:02:15.452Z,46.0
2018-03-25T13:03:17.600Z,46.3
2018-03-25T13:04:19.760Z,46.2
2018-03-25T13:05:21.949Z,46.1
2018-03-25T13:06:22.473Z,46.0
2018-03-25T13:07:25.451Z,46.0
2018-03-25T13:08:25.871Z,46.0
2018-03-25T13:09:27.362Z,45.6
2018-03-25T13:10:28.748Z,45.8
2018-03-25T13:11:30.118Z,44.8
2018-03-25T13:12:31.503Z,44.9
2018-03-25T13:13:32.895Z,45.0
2018-03-25T13:14:35.055Z,44.9
2018-03-25T13:15:36.441Z,44.6
2018-03-25T13:16:38.591Z,44.7
2018-03-25T13:17:42.207Z,44.4
2018-03-25T13:18:43.590Z,43.9
2018-03-25T13:19:45.954Z,44.3
2018-03-25T13:20:46.305Z,44.6
2018-03-25T13:21:48.458Z,44.6
2018-03-25T13:22:49.847Z,44.5
2018-03-25T13:23:51.231Z,44.5
2018-03-25T13:24:52.609Z,44.5
2018-03-25T13:25:54.518Z,44.2
2018-03-25T13:26:55.892Z,44.7
2018-03-25T13:27:57.274Z,44.7
2018-03-25T13:28:58.657Z,44.5
2018-03-25T13:30:00.029Z,44.7
2018-03-25T13:31:01.416Z,44.7
2018-03-25T13:32:03.872Z,44.3
2018-03-25T13:33:05.250Z,44.4
2018-03-25T13:34:06.623Z,44.3
2018-03-25T13:35:07.997Z,44.1
2018-03-25T13:36:09.373Z,44.2
2018-03-25T13:37:10.768Z,44.1
2018-03-25T13:38:12.140Z,43.7
2018-03-25T13:39:13.517Z,44.2
2018-03-25T13:40:14.916Z,44.1
2018-03-25T13:41:18.006Z,44.2
2018-03-25T13:42:20.987Z,43.7
2018-03-25T13:43:23.191Z,43.8
2018-03-25T13:44:25.279Z,43.9
2018-03-25T13:45:29.534Z,43.9
2018-03-25T13:46:33.501Z,43.6
2018-03-25T13:47:35.702Z,43.5
2018-03-25T13:48:37.672Z,43.8
2018-03-25T13:49:40.031Z,43.7
2018-03-25T13:50:42.222Z,43.3